CYQW

North Battleford Airport

North Battleford, Saskatchewan, Canada
METAR CYQW 152200Z AUTO 32007KT 2 1/4SM HZ CLR 19/12 A2988 RMK SLP126 DENSITY ALT 2600FT
Observed Flight Rules
Aug-15 @ 22:00 UTC (28 minutes ago) Instrument Flight Rules
Wind Visibility Clouds Conditions
320° at 7 knots 2 1/4 miles
  • Clear skies
  • Haze
Temperatures Readings
Current 19°C / 66°F
Dewpoint 12°C / 54°F
Humidity 64%
Altimeter 29.88" Hg
Pressure 1012.6 hPa
Elevation 548
METAR CYQW 152200Z AUTO 32007KT 2 1/4SM HZ CLR 19/12 A2988 RMK SLP126 DENSITY ALT 2600FT
Observed Flight Rules
Aug-15 @ 22:00 UTC
(28 minutes ago)
IFR
Wind Visibility
320° at 7 knots 2 1/4 miles
Clouds
  • Clear skies
Conditions
  • Haze
Temperature Dewpoint
19°C / 66°F 12°C / 54°F
Humidity Altimeter Pressure
64% 29.88" Hg 1012.6 hPa